Crum, West Virginia
Current Conditions -  °F | °C
As of 7:15 PM on Sunday 23 Nov 2014 (Local Time) from KSJS Reporting Station
Light Rain Light Rain  
Wind Chill: 57°   Ceiling: 10000
Heat Index: 57°   Visibility: 10mi
Dew Point: 53°   Wind: 13mph
Humidity: 86%   Direction: 140°SE
Pressure: 29.6"   Gusts: 20mph
Location:  37.91°N, 82.44°W
Report Text: KSJS 240015Z AUTO 14011G17KT 10SM -RA SCT060 SCT075 OVC100 14/12 A2960 RMK AO2 T01380115
Loading
Personal Weather Stations






























Interactive Weather Map New forecast layout! Learn more

10-Day Weather Forecast

Advertisements
Track Severe Weather on mobile